Station Historical Data
Daily Summary for May 26, 2017 Units:  English    Metric   Both
« Previous Day
Next Day »
Daily Weekly Monthly Yearly Custom
  High: Low: Average:
Temperature: 62.2 °F 52.7 °F 55 °F
Dew Point: 58.5 °F 51.1 °F 53 °F
Humidity: 95% 85% 93%
Wind Speed: 13.0mph 0.0mph 4.1mph
Wind Gust: 19.0mph - -
Wind- - WSW
Pressure: 29.89 in 29.52 in -
Precipitation: 0.00 in    
Historical Graphs
 
 
Tabular Data for May 26, 2017
Time Temperature Dew Point Pressure Wind Wind Speed Wind Gust Humidity Rainfall Rate (Hourly)
00:00 55.4 °F 53.4 °F 29.52 in SW 3.0 mph 7.0 mph 93% 0.00 in
00:05 55.3 °F 53.6 °F 29.52 in SW 3.0 mph 7.0 mph 94% 0.00 in
00:10 55.2 °F 53.5 °F 29.53 in SW 2.0 mph 5.0 mph 94% 0.00 in
00:15 55.0 °F 53.0 °F 29.53 in SW 2.0 mph 6.0 mph 93% 0.00 in
00:20 54.8 °F 52.8 °F 29.54 in WSW 3.0 mph 6.0 mph 93% 0.00 in
00:25 54.6 °F 52.9 °F 29.54 in SW 3.0 mph 7.0 mph 94% 0.00 in
00:35 54.5 °F 52.8 °F 29.54 in WSW 2.0 mph 6.0 mph 94% 0.00 in
00:40 54.4 °F 52.7 °F 29.54 in SW 4.0 mph 8.0 mph 94% 0.00 in
00:45 54.4 °F 52.7 °F 29.54 in WSW 4.0 mph 7.0 mph 94% 0.00 in
00:50 54.2 °F 52.5 °F 29.54 in WSW 2.0 mph 8.0 mph 94% 0.00 in
00:55 54.3 °F 52.6 °F 29.54 in WSW 2.0 mph 7.0 mph 94% 0.00 in
01:00 54.3 °F 52.6 °F 29.54 in WSW 3.0 mph 7.0 mph 94% 0.00 in
01:05 54.2 °F 52.5 °F 29.54 in SW 3.0 mph 7.0 mph 94% 0.00 in
01:10 54.2 °F 52.5 °F 29.54 in SW 4.0 mph 7.0 mph 94% 0.00 in
01:15 54.2 °F 52.5 °F 29.54 in WSW 4.0 mph 7.0 mph 94% 0.00 in
01:20 54.3 °F 52.6 °F 29.55 in WSW 3.0 mph 7.0 mph 94% 0.00 in
01:25 54.4 °F 52.7 °F 29.55 in WSW 3.0 mph 7.0 mph 94% 0.00 in
01:30 54.4 °F 52.7 °F 29.55 in WSW 3.0 mph 7.0 mph 94% 0.00 in
01:35 54.5 °F 53.1 °F 29.55 in WSW 2.0 mph 6.0 mph 95% 0.00 in
01:40 54.6 °F 53.2 °F 29.55 in WSW 5.0 mph 8.0 mph 95% 0.00 in
01:45 54.6 °F 52.9 °F 29.55 in SW 2.0 mph 8.0 mph 94% 0.00 in
01:50 54.6 °F 52.9 °F 29.55 in West 3.0 mph 6.0 mph 94% 0.00 in
01:55 54.4 °F 52.7 °F 29.55 in SW 7.0 mph 8.0 mph 94% 0.00 in
02:00 54.3 °F 52.6 °F 29.55 in SW 4.0 mph 7.0 mph 94% 0.00 in
02:05 54.3 °F 52.9 °F 29.55 in WSW 4.0 mph 7.0 mph 95% 0.00 in
02:10 54.4 °F 53.0 °F 29.55 in WSW 4.0 mph 9.0 mph 95% 0.00 in
02:15 54.5 °F 53.1 °F 29.55 in WSW 4.0 mph 9.0 mph 95% 0.00 in
02:20 54.6 °F 53.2 °F 29.55 in SSW 3.0 mph 6.0 mph 95% 0.00 in
02:25 54.4 °F 53.0 °F 29.55 in WSW 4.0 mph 6.0 mph 95% 0.00 in
02:30 54.2 °F 52.8 °F 29.55 in WSW 3.0 mph 7.0 mph 95% 0.00 in
02:35 54.1 °F 52.7 °F 29.55 in West 2.0 mph 6.0 mph 95% 0.00 in
02:40 54.1 °F 52.7 °F 29.55 in SW 3.0 mph 8.0 mph 95% 0.00 in
02:45 53.9 °F 52.2 °F 29.55 in WSW 5.0 mph 6.0 mph 94% 0.00 in
02:50 53.6 °F 51.9 °F 29.56 in SSW 4.0 mph 10.0 mph 94% 0.00 in
02:55 53.3 °F 51.9 °F 29.56 in SW 4.0 mph 10.0 mph 95% 0.00 in
03:00 53.2 °F 51.5 °F 29.56 in SW 5.0 mph 10.0 mph 94% 0.00 in
03:05 53.1 °F 51.7 °F 29.56 in SW 5.0 mph 9.0 mph 95% 0.00 in
03:10 53.1 °F 51.7 °F 29.56 in SW 4.0 mph 9.0 mph 95% 0.00 in
03:15 52.9 °F 51.5 °F 29.57 in SW 4.0 mph 10.0 mph 95% 0.00 in
03:20 52.8 °F 51.1 °F 29.57 in SW 4.0 mph 8.0 mph 94% 0.00 in
03:25 52.7 °F 51.3 °F 29.57 in SSW 3.0 mph 9.0 mph 95% 0.00 in
03:30 52.8 °F 51.4 °F 29.57 in SW 4.0 mph 9.0 mph 95% 0.00 in
03:35 52.8 °F 51.4 °F 29.57 in SW 3.0 mph 6.0 mph 95% 0.00 in
03:40 52.8 °F 51.4 °F 29.58 in SW 3.0 mph 6.0 mph 95% 0.00 in
03:45 52.8 °F 51.4 °F 29.58 in SW 3.0 mph 6.0 mph 95% 0.00 in
03:50 52.9 °F 51.5 °F 29.58 in SW 4.0 mph 6.0 mph 95% 0.00 in
03:55 52.9 °F 51.5 °F 29.58 in WSW 2.0 mph 5.0 mph 95% 0.00 in
04:00 53.0 °F 51.6 °F 29.58 in SW 3.0 mph 5.0 mph 95% 0.00 in
04:05 52.9 °F 51.5 °F 29.58 in South 2.0 mph 5.0 mph 95% 0.00 in
04:10 52.9 °F 51.5 °F 29.58 in SW 2.0 mph 6.0 mph 95% 0.00 in
04:15 53.0 °F 51.6 °F 29.58 in WSW 3.0 mph 4.0 mph 95% 0.00 in
04:20 53.0 °F 51.6 °F 29.58 in WSW 1.0 mph 5.0 mph 95% 0.00 in
04:25 53.1 °F 51.7 °F 29.58 in West 2.0 mph 5.0 mph 95% 0.00 in
04:30 53.1 °F 51.7 °F 29.58 in WSW 2.0 mph 5.0 mph 95% 0.00 in
04:35 53.3 °F 51.9 °F 29.58 in WSW 2.0 mph 6.0 mph 95% 0.00 in
04:40 53.2 °F 51.8 °F 29.58 in WSW 3.0 mph 6.0 mph 95% 0.00 in
04:45 53.3 °F 51.9 °F 29.59 in SW 2.0 mph 5.0 mph 95% 0.00 in
04:50 53.3 °F 51.9 °F 29.59 in WSW 2.0 mph 5.0 mph 95% 0.00 in
04:55 53.3 °F 51.9 °F 29.59 in SW 4.0 mph 6.0 mph 95% 0.00 in
05:00 53.3 °F 51.9 °F 29.59 in SW 3.0 mph 6.0 mph 95% 0.00 in
05:04 53.4 °F 52.0 °F 29.59 in SW 3.0 mph 4.0 mph 95% 0.00 in
05:10 53.4 °F 52.0 °F 29.59 in Calm   4.0 mph 95% 0.00 in
05:15 53.4 °F 52.0 °F 29.59 in WSW 2.0 mph 4.0 mph 95% 0.00 in
05:20 53.4 °F 52.0 °F 29.59 in WSW 3.0 mph 4.0 mph 95% 0.00 in
05:24 53.2 °F 51.8 °F 29.59 in WSW 3.0 mph 4.0 mph 95% 0.00 in
05:30 53.2 °F 51.8 °F 29.59 in WSW 3.0 mph 6.0 mph 95% 0.00 in
05:35 53.1 °F 51.7 °F 29.59 in WSW 1.0 mph 6.0 mph 95% 0.00 in
05:40 53.2 °F 51.8 °F 29.59 in SW 4.0 mph 7.0 mph 95% 0.00 in
05:45 53.1 °F 51.7 °F 29.59 in WSW 2.0 mph 8.0 mph 95% 0.00 in
05:50 53.0 °F 51.6 °F 29.59 in SW 4.0 mph 7.0 mph 95% 0.00 in
05:55 53.1 °F 51.7 °F 29.60 in WSW 3.0 mph 7.0 mph 95% 0.00 in
06:00 53.1 °F 51.7 °F 29.60 in SW 3.0 mph 8.0 mph 95% 0.00 in
06:05 53.2 °F 51.8 °F 29.60 in SW 3.0 mph 8.0 mph 95% 0.00 in
06:10 53.1 °F 51.7 °F 29.61 in SW 4.0 mph 7.0 mph 95% 0.00 in
06:15 53.1 °F 51.7 °F 29.61 in SW 4.0 mph 8.0 mph 95% 0.00 in
06:19 53.1 °F 51.7 °F 29.61 in SW 5.0 mph 8.0 mph 95% 0.00 in
06:24 53.1 °F 51.7 °F 29.61 in SW 4.0 mph 8.0 mph 95% 0.00 in
06:30 53.2 °F 51.8 °F 29.61 in SW 6.0 mph 7.0 mph 95% 0.00 in
06:35 53.2 °F 51.8 °F 29.61 in SW 2.0 mph 7.0 mph 95% 0.00 in
06:40 53.2 °F 51.8 °F 29.61 in SW 3.0 mph 10.0 mph 95% 0.00 in
06:45 53.3 °F 51.9 °F 29.61 in SW 1.0 mph 6.0 mph 95% 0.00 in
06:50 53.3 °F 51.9 °F 29.62 in South 1.0 mph 8.0 mph 95% 0.00 in
06:55 53.3 °F 51.9 °F 29.62 in SW 3.0 mph 8.0 mph 95% 0.00 in
07:00 53.3 °F 51.9 °F 29.62 in SW 3.0 mph 7.0 mph 95% 0.00 in
07:05 53.4 °F 52.0 °F 29.62 in WSW 3.0 mph 7.0 mph 95% 0.00 in
07:10 53.7 °F 52.3 °F 29.63 in WSW 2.0 mph 5.0 mph 95% 0.00 in
07:15 53.8 °F 52.4 °F 29.63 in WSW 2.0 mph 7.0 mph 95% 0.00 in
07:19 53.7 °F 52.0 °F 29.64 in SW 3.0 mph 7.0 mph 94% 0.00 in
07:24 53.6 °F 51.9 °F 29.64 in WSW 4.0 mph 7.0 mph 94% 0.00 in
07:29 53.7 °F 52.0 °F 29.64 in WNW 4.0 mph 8.0 mph 94% 0.00 in
07:35 53.4 °F 51.7 °F 29.65 in WNW 6.0 mph 14.0 mph 94% 0.00 in
07:40 53.2 °F 51.5 °F 29.65 in West 6.0 mph 8.0 mph 94% 0.00 in
07:45 53.0 °F 51.3 °F 29.65 in SSW 5.0 mph 10.0 mph 94% 0.00 in
07:50 52.9 °F 51.2 °F 29.66 in WSW 8.0 mph 9.0 mph 94% 0.00 in
07:54 52.8 °F 51.1 °F 29.66 in WSW 4.0 mph 11.0 mph 94% 0.00 in
08:00 52.8 °F 51.1 °F 29.66 in WSW 4.0 mph 11.0 mph 94% 0.00 in
08:05 52.8 °F 51.1 °F 29.66 in WSW 4.0 mph 10.0 mph 94% 0.00 in
08:10 52.9 °F 51.2 °F 29.66 in WSW 4.0 mph 10.0 mph 94% 0.00 in
08:15 52.9 °F 51.2 °F 29.67 in WSW 4.0 mph 9.0 mph 94% 0.00 in
08:20 53.0 °F 51.3 °F 29.67 in WSW 3.0 mph 9.0 mph 94% 0.00 in
08:24 53.1 °F 51.4 °F 29.67 in WSW 3.0 mph 7.0 mph 94% 0.00 in
08:29 53.2 °F 51.5 °F 29.67 in WSW 1.0 mph 5.0 mph 94% 0.00 in
08:35 53.3 °F 51.9 °F 29.67 in SW 4.0 mph 7.0 mph 95% 0.00 in
08:40 53.4 °F 52.0 °F 29.67 in SW 5.0 mph 5.0 mph 95% 0.00 in
08:44 53.7 °F 52.3 °F 29.67 in SW 3.0 mph 5.0 mph 95% 0.00 in
08:49 53.7 °F 52.0 °F 29.67 in WSW 6.0 mph 7.0 mph 94% 0.00 in
08:55 53.8 °F 52.1 °F 29.67 in SW 3.0 mph 7.0 mph 94% 0.00 in
08:59 53.8 °F 52.1 °F 29.68 in SW 4.0 mph 7.0 mph 94% 0.00 in
09:05 53.9 °F 52.2 °F 29.68 in SW 3.0 mph 7.0 mph 94% 0.00 in
09:10 53.9 °F 52.2 °F 29.68 in SW 4.0 mph 9.0 mph 94% 0.00 in
09:15 53.8 °F 52.1 °F 29.68 in WSW 4.0 mph 8.0 mph 94% 0.00 in
09:20 53.8 °F 52.1 °F 29.68 in WSW 4.0 mph 8.0 mph 94% 0.00 in
09:24 54.1 °F 52.7 °F 29.68 in WSW 2.0 mph 6.0 mph 95% 0.00 in
09:30 54.4 °F 53.0 °F 29.68 in WSW 3.0 mph 5.0 mph 95% 0.00 in
09:35 54.6 °F 53.2 °F 29.68 in SW 2.0 mph 6.0 mph 95% 0.00 in
09:39 55.1 °F 53.7 °F 29.69 in West 4.0 mph 4.0 mph 95% 0.01 in
09:44 55.5 °F 54.1 °F 29.69 in WSW 3.0 mph 5.0 mph 95% 0.01 in
09:49 55.6 °F 54.2 °F 29.69 in West 3.0 mph 5.0 mph 95% 0.01 in
09:54 55.9 °F 54.2 °F 29.69 in WNW 3.0 mph 6.0 mph 94% 0.01 in
09:59 56.1 °F 54.7 °F 29.69 in West 3.0 mph 8.0 mph 95% 0.01 in
10:05 56.4 °F 54.7 °F 29.69 in WNW 2.0 mph 8.0 mph 94% 0.02 in
10:10 56.5 °F 54.8 °F 29.70 in WNW 3.0 mph 6.0 mph 94% 0.02 in
10:15 56.9 °F 55.2 °F 29.70 in WNW 6.0 mph 7.0 mph 94% 0.02 in
10:19 56.8 °F 55.1 °F 29.70 in WNW 3.0 mph 7.0 mph 94% 0.02 in
10:25 56.9 °F 54.9 °F 29.70 in WNW 4.0 mph 7.0 mph 93% 0.02 in
10:30 56.8 °F 54.8 °F 29.71 in WNW 3.0 mph 7.0 mph 93% 0.02 in
10:34 57.0 °F 55.3 °F 29.71 in WNW 2.0 mph 5.0 mph 94% 0.02 in
10:39 56.5 °F 54.5 °F 29.71 in WNW 5.0 mph 6.0 mph 93% 0.01 in
10:44 56.5 °F 54.5 °F 29.71 in West 2.0 mph 6.0 mph 93% 0.01 in
10:49 56.6 °F 54.6 °F 29.71 in West 3.0 mph 6.0 mph 93% 0.01 in
10:55 56.9 °F 55.2 °F 29.71 in West 3.0 mph 6.0 mph 94% 0.02 in
11:00 57.1 °F 55.4 °F 29.71 in WSW 3.0 mph 7.0 mph 94% 0.02 in
11:04 57.1 °F 55.4 °F 29.71 in WSW 4.0 mph 6.0 mph 94% 0.01 in
11:10 57.6 °F 55.9 °F 29.71 in West 5.0 mph 6.0 mph 94% 0.02 in
11:15 57.8 °F 55.8 °F 29.71 in WSW 2.0 mph 8.0 mph 93% 0.02 in
11:19 58.6 °F 56.9 °F 29.71 in West 3.0 mph 8.0 mph 94% 0.02 in
11:24 58.6 °F 56.3 °F 29.71 in West 2.0 mph 5.0 mph 92% 0.02 in
11:29 58.6 °F 56.6 °F 29.71 in West 3.0 mph 6.0 mph 93% 0.02 in
11:35 58.8 °F 56.5 °F 29.72 in West 3.0 mph 8.0 mph 92% 0.02 in
11:39 58.9 °F 56.6 °F 29.72 in West 3.0 mph 6.0 mph 92% 0.02 in
11:44 59.0 °F 56.4 °F 29.71 in WSW 3.0 mph 6.0 mph 91% 0.02 in
11:50 58.3 °F 55.7 °F 29.71 in West 5.0 mph 10.0 mph 91% 0.02 in
11:54 58.0 °F 55.7 °F 29.72 in SW 5.0 mph 8.0 mph 92% 0.01 in
11:59 57.9 °F 55.6 °F 29.72 in WSW 3.0 mph 9.0 mph 92% 0.01 in
12:04 57.9 °F 55.6 °F 29.72 in WSW 5.0 mph 8.0 mph 92% 0.01 in
12:09 57.8 °F 55.5 °F 29.72 in SW 3.0 mph 9.0 mph 92% 0.00 in
12:15 58.3 °F 56.3 °F 29.72 in SW 2.0 mph 8.0 mph 93% 0.00 in
12:19 58.5 °F 56.2 °F 29.72 in SW 4.0 mph 10.0 mph 92% 0.00 in
12:24 59.1 °F 56.8 °F 29.72 in SW 5.0 mph 10.0 mph 92% 0.00 in
12:29 59.9 °F 57.6 °F 29.72 in SW 4.0 mph 7.0 mph 92% 0.00 in
12:35 60.3 °F 57.4 °F 29.72 in SW 4.0 mph 9.0 mph 90% 0.00 in
12:40 59.6 °F 56.4 °F 29.72 in SW 2.0 mph 9.0 mph 89% 0.00 in
12:45 59.3 °F 56.1 °F 29.72 in WSW 3.0 mph 11.0 mph 89% 0.00 in
12:49 58.9 °F 56.0 °F 29.73 in SW 5.0 mph 11.0 mph 90% 0.00 in
12:54 59.0 °F 56.1 °F 29.73 in SW 6.0 mph 8.0 mph 90% 0.00 in
12:59 60.1 °F 57.2 °F 29.73 in SW 4.0 mph 8.0 mph 90% 0.00 in
13:04 61.8 °F 58.5 °F 29.73 in SW 6.0 mph 9.0 mph 89% 0.00 in
13:09 62.2 °F 58.3 °F 29.73 in WSW 7.0 mph 9.0 mph 87% 0.00 in
13:15 61.1 °F 56.9 °F 29.74 in SW 6.0 mph 12.0 mph 86% 0.00 in
13:19 60.6 °F 56.4 °F 29.74 in WSW 6.0 mph 12.0 mph 86% 0.00 in
13:24 59.5 °F 55.6 °F 29.74 in WSW 6.0 mph 14.0 mph 87% 0.00 in
13:29 58.4 °F 54.5 °F 29.74 in SW 6.0 mph 14.0 mph 87% 0.00 in
13:34 57.3 °F 53.8 °F 29.75 in SW 7.0 mph 13.0 mph 88% 0.00 in
13:40 56.5 °F 53.3 °F 29.75 in WSW 7.0 mph 14.0 mph 89% 0.00 in
13:44 56.3 °F 53.4 °F 29.75 in West 13.0 mph 13.0 mph 90% 0.00 in
13:49 56.2 °F 53.3 °F 29.75 in WSW 6.0 mph 15.0 mph 90% 0.00 in
13:54 56.6 °F 53.7 °F 29.75 in SW 7.0 mph 15.0 mph 90% 0.00 in
14:00 57.0 °F 53.5 °F 29.75 in WSW 8.0 mph 15.0 mph 88% 0.00 in
14:04 56.9 °F 53.4 °F 29.75 in WNW 9.0 mph 12.0 mph 88% 0.00 in
14:09 57.0 °F 53.5 °F 29.75 in WSW 9.0 mph 12.0 mph 88% 0.00 in
14:14 58.4 °F 54.9 °F 29.76 in SW 11.0 mph 11.0 mph 88% 0.00 in
14:19 58.7 °F 54.8 °F 29.76 in WSW 7.0 mph 15.0 mph 87% 0.00 in
14:24 59.3 °F 55.1 °F 29.76 in SSW 8.0 mph 18.0 mph 86% 0.00 in
14:29 58.5 °F 54.0 °F 29.76 in WSW 9.0 mph 17.0 mph 85% 0.00 in
14:34 57.9 °F 53.4 °F 29.76 in WSW 7.0 mph 15.0 mph 85% 0.00 in
14:39 58.0 °F 53.8 °F 29.76 in SW 7.0 mph 14.0 mph 86% 0.00 in
14:44 57.7 °F 53.2 °F 29.76 in WSW 9.0 mph 14.0 mph 85% 0.00 in
14:49 57.3 °F 53.5 °F 29.77 in WSW 7.0 mph 14.0 mph 87% 0.00 in
14:55 57.3 °F 54.1 °F 29.77 in SW 9.0 mph 12.0 mph 89% 0.00 in
14:59 57.1 °F 53.6 °F 29.77 in WSW 6.0 mph 14.0 mph 88% 0.00 in
15:05 56.4 °F 52.9 °F 29.77 in WSW 7.0 mph 16.0 mph 88% 0.00 in
15:09 56.0 °F 52.5 °F 29.77 in SW 11.0 mph 14.0 mph 88% 0.00 in
15:14 56.0 °F 52.8 °F 29.77 in SW 7.0 mph 14.0 mph 89% 0.00 in
15:19 56.0 °F 52.8 °F 29.78 in SW 6.0 mph 14.0 mph 89% 0.00 in
15:24 55.9 °F 53.0 °F 29.78 in SW 5.0 mph 13.0 mph 90% 0.00 in
15:29 55.7 °F 52.8 °F 29.78 in West 3.0 mph 13.0 mph 90% 0.00 in
15:35 55.4 °F 52.5 °F 29.78 in SW 7.0 mph 19.0 mph 90% 0.00 in
15:40 55.3 °F 52.7 °F 29.78 in WSW 7.0 mph 13.0 mph 91% 0.00 in
15:44 55.4 °F 52.8 °F 29.78 in WSW 1.0 mph 14.0 mph 91% 0.00 in
15:49 55.3 °F 53.0 °F 29.78 in WSW 6.0 mph 14.0 mph 92% 0.00 in
15:54 55.2 °F 52.9 °F 29.78 in WSW 5.0 mph 11.0 mph 92% 0.00 in
15:59 55.4 °F 53.1 °F 29.78 in SW 5.0 mph 9.0 mph 92% 0.00 in
16:04 55.4 °F 53.1 °F 29.78 in SW 5.0 mph 8.0 mph 92% 0.00 in
16:09 55.3 °F 53.0 °F 29.78 in WSW 4.0 mph 16.0 mph 92% 0.00 in
16:14 55.5 °F 53.2 °F 29.78 in West 3.0 mph 12.0 mph 92% 0.00 in
16:19 55.5 °F 53.2 °F 29.78 in SW 6.0 mph 12.0 mph 92% 0.00 in
16:24 55.3 °F 53.0 °F 29.78 in SW 7.0 mph 16.0 mph 92% 0.00 in
16:29 55.5 °F 53.2 °F 29.78 in SSW 5.0 mph 12.0 mph 92% 0.00 in
16:34 55.3 °F 53.0 °F 29.79 in West 5.0 mph 13.0 mph 92% 0.00 in
16:39 55.4 °F 53.1 °F 29.78 in WSW 5.0 mph 12.0 mph 92% 0.00 in
16:44 55.8 °F 53.5 °F 29.79 in South 4.0 mph 11.0 mph 92% 0.00 in
16:49 55.9 °F 53.6 °F 29.79 in SW 5.0 mph 11.0 mph 92% 0.00 in
16:54 56.1 °F 53.8 °F 29.79 in SW 5.0 mph 11.0 mph 92% 0.00 in
16:59 56.4 °F 53.8 °F 29.79 in SW 5.0 mph 14.0 mph 91% 0.00 in
17:04 56.4 °F 53.5 °F 29.79 in WSW 6.0 mph 14.0 mph 90% 0.00 in
17:10 56.5 °F 53.6 °F 29.79 in WSW 5.0 mph 9.0 mph 90% 0.00 in
17:15 56.5 °F 53.6 °F 29.80 in WSW 6.0 mph 11.0 mph 90% 0.00 in
17:19 56.3 °F 53.1 °F 29.80 in SW 6.0 mph 15.0 mph 89% 0.00 in
17:24 56.0 °F 52.8 °F 29.80 in SW 7.0 mph 16.0 mph 89% 0.00 in
17:29 55.7 °F 52.5 °F 29.80 in WSW 7.0 mph 14.0 mph 89% 0.00 in
17:34 55.6 °F 52.4 °F 29.81 in West 9.0 mph 13.0 mph 89% 0.00 in
17:39 55.3 °F 52.4 °F 29.81 in SW 5.0 mph 15.0 mph 90% 0.00 in
17:44 55.1 °F 52.2 °F 29.81 in SW 7.0 mph 19.0 mph 90% 0.00 in
17:49 55.1 °F 52.2 °F 29.81 in SW 8.0 mph 19.0 mph 90% 0.00 in
17:54 55.0 °F 52.1 °F 29.81 in SW 7.0 mph 16.0 mph 90% 0.00 in
17:59 55.0 °F 52.1 °F 29.82 in West 4.0 mph 15.0 mph 90% 0.00 in
18:04 54.9 °F 52.3 °F 29.82 in SSW 7.0 mph 11.0 mph 91% 0.00 in
18:10 54.9 °F 52.3 °F 29.82 in SW 3.0 mph 12.0 mph 91% 0.00 in
18:14 54.8 °F 52.2 °F 29.82 in WSW 6.0 mph 12.0 mph 91% 0.00 in
18:19 54.8 °F 52.5 °F 29.82 in WSW 5.0 mph 11.0 mph 92% 0.00 in
18:24 54.7 °F 52.4 °F 29.82 in SW 5.0 mph 11.0 mph 92% 0.00 in
18:29 54.8 °F 52.5 °F 29.82 in SW 5.0 mph 10.0 mph 92% 0.00 in
18:34 54.8 °F 52.5 °F 29.82 in SW 4.0 mph 12.0 mph 92% 0.00 in
18:39 54.9 °F 52.6 °F 29.82 in WSW 7.0 mph 14.0 mph 92% 0.00 in
18:44 54.8 °F 52.5 °F 29.83 in WSW 6.0 mph 14.0 mph 92% 0.00 in
18:49 54.6 °F 52.3 °F 29.83 in WSW 4.0 mph 12.0 mph 92% 0.00 in
18:54 54.6 °F 52.3 °F 29.83 in West 5.0 mph 10.0 mph 92% 0.00 in
18:59 54.5 °F 52.2 °F 29.84 in WSW 7.0 mph 10.0 mph 92% 0.01 in
19:04 54.4 °F 52.1 °F 29.84 in West 5.0 mph 9.0 mph 92% 0.01 in
19:09 54.4 °F 52.4 °F 29.84 in SW 5.0 mph 8.0 mph 93% 0.03 in
19:14 54.3 °F 52.3 °F 29.84 in SW 4.0 mph 8.0 mph 93% 0.04 in
19:19 54.3 °F 52.3 °F 29.84 in WSW 4.0 mph 9.0 mph 93% 0.05 in
19:24 54.3 °F 52.3 °F 29.84 in SW 4.0 mph 9.0 mph 93% 0.05 in
19:29 54.2 °F 52.2 °F 29.85 in SW 5.0 mph 12.0 mph 93% 0.05 in
19:34 54.1 °F 52.1 °F 29.85 in WSW 5.0 mph 12.0 mph 93% 0.06 in
19:39 54.1 °F 52.1 °F 29.85 in WSW 4.0 mph 8.0 mph 93% 0.06 in
19:44 54.1 °F 52.1 °F 29.85 in WSW 1.0 mph 8.0 mph 93% 0.06 in
19:49 54.1 °F 52.1 °F 29.85 in SW 5.0 mph 7.0 mph 93% 0.06 in
19:54 54.0 °F 52.0 °F 29.85 in SW 3.0 mph 6.0 mph 93% 0.06 in
19:59 54.0 °F 52.0 °F 29.85 in SW 5.0 mph 8.0 mph 93% 0.05 in
20:04 54.1 °F 52.1 °F 29.85 in SW 2.0 mph 7.0 mph 93% 0.05 in
20:09 54.1 °F 52.1 °F 29.85 in SW 5.0 mph 5.0 mph 93% 0.03 in
20:14 54.1 °F 52.1 °F 29.85 in SW 3.0 mph 6.0 mph 93% 0.03 in
20:19 54.2 °F 52.2 °F 29.85 in SW 1.0 mph 5.0 mph 93% 0.02 in
20:24 54.3 °F 52.3 °F 29.85 in SW 3.0 mph 6.0 mph 93% 0.02 in
20:29 54.4 °F 52.7 °F 29.85 in SW 2.0 mph 5.0 mph 94% 0.02 in
20:34 54.6 °F 52.9 °F 29.85 in SW 2.0 mph 5.0 mph 94% 0.01 in
20:39 54.7 °F 53.0 °F 29.85 in WSW 5.0 mph 7.0 mph 94% 0.01 in
20:44 54.8 °F 53.1 °F 29.85 in SW 5.0 mph 8.0 mph 94% 0.01 in
20:49 54.8 °F 53.1 °F 29.85 in West 4.0 mph 7.0 mph 94% 0.01 in
20:54 54.8 °F 53.1 °F 29.85 in WSW 4.0 mph 6.0 mph 94% 0.01 in
20:59 54.6 °F 52.9 °F 29.85 in SW 3.0 mph 9.0 mph 94% 0.01 in
21:04 54.6 °F 52.9 °F 29.85 in SW 3.0 mph 5.0 mph 94% 0.01 in
21:09 54.6 °F 52.9 °F 29.85 in SW 1.0 mph 7.0 mph 94% 0.01 in
21:14 54.5 °F 52.8 °F 29.85 in SSW 2.0 mph 6.0 mph 94% 0.00 in
21:19 54.4 °F 52.7 °F 29.85 in SW 2.0 mph 6.0 mph 94% 0.00 in
21:24 54.4 °F 52.7 °F 29.86 in SW 2.0 mph 7.0 mph 94% 0.00 in
21:29 54.4 °F 52.7 °F 29.86 in SW 3.0 mph 7.0 mph 94% 0.00 in
21:34 54.4 °F 52.7 °F 29.86 in SW 4.0 mph 9.0 mph 94% 0.00 in
21:39 54.3 °F 52.6 °F 29.86 in SW 4.0 mph 9.0 mph 94% 0.00 in
21:44 54.3 °F 52.6 °F 29.86 in SW 4.0 mph 10.0 mph 94% 0.00 in
21:49 54.1 °F 52.4 °F 29.86 in WSW 8.0 mph 8.0 mph 94% 0.00 in
21:54 54.1 °F 52.4 °F 29.87 in SW 3.0 mph 8.0 mph 94% 0.00 in
21:59 54.0 °F 52.3 °F 29.87 in SSW 4.0 mph 9.0 mph 94% 0.00 in
22:04 54.0 °F 52.3 °F 29.87 in SSW 5.0 mph 12.0 mph 94% 0.00 in
22:09 53.9 °F 52.2 °F 29.88 in SW 3.0 mph 10.0 mph 94% 0.00 in
22:14 53.9 °F 52.2 °F 29.88 in SW 4.0 mph 10.0 mph 94% 0.00 in
22:19 53.8 °F 52.1 °F 29.88 in SW 4.0 mph 8.0 mph 94% 0.00 in
22:24 53.9 °F 52.2 °F 29.88 in SW 4.0 mph 8.0 mph 94% 0.00 in
22:29 53.9 °F 52.2 °F 29.88 in SW 4.0 mph 7.0 mph 94% 0.00 in
22:34 54.1 °F 52.4 °F 29.88 in West 2.0 mph 8.0 mph 94% 0.00 in
22:39 54.1 °F 52.4 °F 29.88 in WSW 1.0 mph 9.0 mph 94% 0.00 in
22:44 54.1 °F 52.4 °F 29.88 in WSW 4.0 mph 10.0 mph 94% 0.00 in
22:49 54.0 °F 52.3 °F 29.89 in WSW 4.0 mph 10.0 mph 94% 0.00 in
22:54 53.9 °F 52.2 °F 29.88 in WSW 3.0 mph 5.0 mph 94% 0.00 in
22:59 53.8 °F 52.1 °F 29.89 in SSW 2.0 mph 7.0 mph 94% 0.00 in
23:04 53.9 °F 52.2 °F 29.89 in SW 4.0 mph 7.0 mph 94% 0.00 in
23:09 53.9 °F 52.2 °F 29.89 in WSW 2.0 mph 4.0 mph 94% 0.00 in
23:14 53.9 °F 52.2 °F 29.89 in SW 2.0 mph 4.0 mph 94% 0.00 in
23:19 53.9 °F 52.2 °F 29.88 in SW 2.0 mph 6.0 mph 94% 0.00 in
23:24 53.9 °F 52.2 °F 29.88 in SW 2.0 mph 7.0 mph 94% 0.00 in
23:29 53.8 °F 52.1 °F 29.88 in SW 2.0 mph 7.0 mph 94% 0.00 in
23:34 53.9 °F 52.2 °F 29.89 in SSW 4.0 mph 6.0 mph 94% 0.00 in
23:39 53.9 °F 52.2 °F 29.89 in SSW 2.0 mph 6.0 mph 94% 0.00 in
23:44 53.9 °F 52.2 °F 29.89 in SW 3.0 mph 3.0 mph 94% 0.00 in
23:49 53.9 °F 52.2 °F 29.89 in WSW 1.0 mph 5.0 mph 94% 0.01 in
23:54 53.9 °F 52.2 °F 29.88 in Calm   6.0 mph 94% 0.01 in
23:59 53.9 °F 52.2 °F 29.88 in SW 5.0 mph 7.0 mph 94% 0.01 in
Buffalo, New York, USA
Compliments of Weather Underground - 2.5 mb